sensor_id;sensor_type;location;lat;lon;timestamp;P1;durP1;ratioP1;P2;durP2;ratioP2
75912;SDS011;64592;52.168;21.040;2023-04-19T00:01:56;8.05;;;4.93;;
75912;SDS011;64592;52.168;21.040;2023-04-19T00:06:59;8.23;;;4.72;;
75912;SDS011;64592;52.168;21.040;2023-04-19T00:12:01;9.80;;;4.85;;
75912;SDS011;64592;52.168;21.040;2023-04-19T00:17:03;8.68;;;4.20;;
75912;SDS011;64592;52.168;21.040;2023-04-19T00:22:06;8.88;;;4.13;;
75912;SDS011;64592;52.168;21.040;2023-04-19T00:27:08;7.85;;;4.28;;
75912;SDS011;64592;52.168;21.040;2023-04-19T00:32:09;6.45;;;4.43;;
75912;SDS011;64592;52.168;21.040;2023-04-19T00:37:12;7.65;;;4.40;;
75912;SDS011;64592;52.168;21.040;2023-04-19T00:42:14;7.72;;;4.22;;
75912;SDS011;64592;52.168;21.040;2023-04-19T00:47:16;7.88;;;4.72;;
75912;SDS011;64592;52.168;21.040;2023-04-19T00:52:19;9.23;;;4.68;;
75912;SDS011;64592;52.168;21.040;2023-04-19T00:57:22;5.88;;;4.10;;
75912;SDS011;64592;52.168;21.040;2023-04-19T01:02:24;6.82;;;4.00;;
75912;SDS011;64592;52.168;21.040;2023-04-19T01:07:28;6.22;;;4.57;;
75912;SDS011;64592;52.168;21.040;2023-04-19T01:12:30;6.47;;;4.18;;
75912;SDS011;64592;52.168;21.040;2023-04-19T01:17:32;7.15;;;4.45;;
75912;SDS011;64592;52.168;21.040;2023-04-19T01:22:35;7.40;;;4.63;;
75912;SDS011;64592;52.168;21.040;2023-04-19T01:27:37;9.10;;;4.75;;
75912;SDS011;64592;52.168;21.040;2023-04-19T01:32:39;7.63;;;5.20;;
75912;SDS011;64592;52.168;21.040;2023-04-19T01:37:42;7.15;;;4.70;;
75912;SDS011;64592;52.168;21.040;2023-04-19T01:42:44;9.35;;;5.25;;
75912;SDS011;64592;52.168;21.040;2023-04-19T01:47:45;9.38;;;5.80;;
75912;SDS011;64592;52.168;21.040;2023-04-19T01:52:48;7.95;;;5.90;;
75912;SDS011;64592;52.168;21.040;2023-04-19T01:57:50;8.60;;;5.72;;
75912;SDS011;64592;52.168;21.040;2023-04-19T02:02:52;10.82;;;6.05;;
75912;SDS011;64592;52.168;21.040;2023-04-19T02:07:55;9.32;;;6.40;;
75912;SDS011;64592;52.168;21.040;2023-04-19T02:12:57;10.00;;;6.18;;
75912;SDS011;64592;52.168;21.040;2023-04-19T02:17:59;10.85;;;7.03;;
75912;SDS011;64592;52.168;21.040;2023-04-19T02:23:02;8.68;;;6.25;;
75912;SDS011;64592;52.168;21.040;2023-04-19T02:28:03;9.60;;;6.20;;
75912;SDS011;64592;52.168;21.040;2023-04-19T02:33:05;10.10;;;6.60;;
75912;SDS011;64592;52.168;21.040;2023-04-19T02:38:08;10.88;;;5.50;;
75912;SDS011;64592;52.168;21.040;2023-04-19T02:43:09;10.10;;;5.93;;
75912;SDS011;64592;52.168;21.040;2023-04-19T02:48:34;8.20;;;5.10;;
75912;SDS011;64592;52.168;21.040;2023-04-19T02:53:36;9.88;;;6.45;;
75912;SDS011;64592;52.168;21.040;2023-04-19T02:58:37;9.75;;;6.63;;
75912;SDS011;64592;52.168;21.040;2023-04-19T03:03:40;8.70;;;5.88;;
75912;SDS011;64592;52.168;21.040;2023-04-19T03:08:44;9.77;;;6.00;;
75912;SDS011;64592;52.168;21.040;2023-04-19T03:13:45;10.35;;;6.65;;
75912;SDS011;64592;52.168;21.040;2023-04-19T03:18:48;10.55;;;6.45;;
75912;SDS011;64592;52.168;21.040;2023-04-19T03:23:50;9.35;;;5.60;;
75912;SDS011;64592;52.168;21.040;2023-04-19T03:28:52;8.60;;;5.38;;
75912;SDS011;64592;52.168;21.040;2023-04-19T03:33:55;8.50;;;5.25;;
75912;SDS011;64592;52.168;21.040;2023-04-19T03:38:56;8.98;;;5.65;;
75912;SDS011;64592;52.168;21.040;2023-04-19T03:43:58;9.57;;;5.25;;
75912;SDS011;64592;52.168;21.040;2023-04-19T03:49:01;8.98;;;5.03;;
75912;SDS011;64592;52.168;21.040;2023-04-19T03:54:03;11.80;;;7.00;;
75912;SDS011;64592;52.168;21.040;2023-04-19T03:59:04;9.88;;;6.90;;
75912;SDS011;64592;52.168;21.040;2023-04-19T04:04:07;10.15;;;6.72;;
75912;SDS011;64592;52.168;21.040;2023-04-19T04:09:09;9.77;;;6.80;;
75912;SDS011;64592;52.168;21.040;2023-04-19T04:14:11;9.40;;;6.20;;
75912;SDS011;64592;52.168;21.040;2023-04-19T04:19:14;12.95;;;6.25;;
75912;SDS011;64592;52.168;21.040;2023-04-19T04:24:15;9.02;;;5.35;;
75912;SDS011;64592;52.168;21.040;2023-04-19T04:29:19;9.52;;;7.07;;
75912;SDS011;64592;52.168;21.040;2023-04-19T04:34:22;9.77;;;5.93;;
75912;SDS011;64592;52.168;21.040;2023-04-19T04:39:25;10.52;;;5.63;;
75912;SDS011;64592;52.168;21.040;2023-04-19T04:44:26;7.97;;;5.70;;
75912;SDS011;64592;52.168;21.040;2023-04-19T04:49:29;8.80;;;5.60;;
75912;SDS011;64592;52.168;21.040;2023-04-19T04:54:31;9.02;;;5.40;;
75912;SDS011;64592;52.168;21.040;2023-04-19T04:59:33;9.57;;;5.38;;
75912;SDS011;64592;52.168;21.040;2023-04-19T05:04:36;9.93;;;5.80;;
75912;SDS011;64592;52.168;21.040;2023-04-19T05:09:37;8.57;;;5.95;;
75912;SDS011;64592;52.168;21.040;2023-04-19T05:14:39;7.93;;;5.82;;
75912;SDS011;64592;52.168;21.040;2023-04-19T05:19:42;10.27;;;6.07;;
75912;SDS011;64592;52.168;21.040;2023-04-19T05:24:44;9.20;;;6.15;;
75912;SDS011;64592;52.168;21.040;2023-04-19T05:29:46;9.63;;;6.30;;
75912;SDS011;64592;52.168;21.040;2023-04-19T05:34:51;10.30;;;6.60;;
75912;SDS011;64592;52.168;21.040;2023-04-19T05:39:53;11.50;;;6.70;;
75912;SDS011;64592;52.168;21.040;2023-04-19T05:44:54;11.60;;;7.35;;
75912;SDS011;64592;52.168;21.040;2023-04-19T05:49:57;11.23;;;7.47;;
75912;SDS011;64592;52.168;21.040;2023-04-19T05:54:59;12.88;;;7.57;;
75912;SDS011;64592;52.168;21.040;2023-04-19T06:00:01;11.95;;;8.18;;
75912;SDS011;64592;52.168;21.040;2023-04-19T06:05:05;13.45;;;8.45;;
75912;SDS011;64592;52.168;21.040;2023-04-19T06:10:08;15.07;;;9.10;;
75912;SDS011;64592;52.168;21.040;2023-04-19T06:15:10;13.77;;;7.95;;
75912;SDS011;64592;52.168;21.040;2023-04-19T06:20:13;12.50;;;8.80;;
75912;SDS011;64592;52.168;21.040;2023-04-19T06:25:15;19.08;;;10.43;;
75912;SDS011;64592;52.168;21.040;2023-04-19T06:30:16;18.58;;;10.52;;
75912;SDS011;64592;52.168;21.040;2023-04-19T06:35:19;16.27;;;9.95;;
75912;SDS011;64592;52.168;21.040;2023-04-19T06:40:21;15.88;;;10.15;;
75912;SDS011;64592;52.168;21.040;2023-04-19T06:45:23;14.13;;;9.70;;
75912;SDS011;64592;52.168;21.040;2023-04-19T06:50:26;18.40;;;10.88;;
75912;SDS011;64592;52.168;21.040;2023-04-19T06:55:28;18.63;;;10.73;;
75912;SDS011;64592;52.168;21.040;2023-04-19T07:00:30;16.20;;;10.45;;
75912;SDS011;64592;52.168;21.040;2023-04-19T07:05:33;15.88;;;10.65;;
75912;SDS011;64592;52.168;21.040;2023-04-19T07:10:36;15.18;;;10.85;;
75912;SDS011;64592;52.168;21.040;2023-04-19T07:15:38;16.58;;;10.32;;
75912;SDS011;64592;52.168;21.040;2023-04-19T07:20:41;16.58;;;11.07;;
75912;SDS011;64592;52.168;21.040;2023-04-19T07:25:47;17.73;;;10.90;;
75912;SDS011;64592;52.168;21.040;2023-04-19T07:30:49;15.85;;;11.02;;
75912;SDS011;64592;52.168;21.040;2023-04-19T07:35:52;14.60;;;10.05;;
75912;SDS011;64592;52.168;21.040;2023-04-19T07:40:53;18.58;;;12.10;;
75912;SDS011;64592;52.168;21.040;2023-04-19T07:45:55;16.90;;;9.52;;
75912;SDS011;64592;52.168;21.040;2023-04-19T07:50:58;15.63;;;8.88;;
75912;SDS011;64592;52.168;21.040;2023-04-19T07:56:09;23.10;;;9.27;;
75912;SDS011;64592;52.168;21.040;2023-04-19T08:01:11;14.88;;;8.48;;
75912;SDS011;64592;52.168;21.040;2023-04-19T08:06:14;15.80;;;9.20;;
75912;SDS011;64592;52.168;21.040;2023-04-19T08:11:16;14.15;;;9.10;;
75912;SDS011;64592;52.168;21.040;2023-04-19T08:16:18;12.82;;;8.43;;
75912;SDS011;64592;52.168;21.040;2023-04-19T08:21:21;13.32;;;9.75;;
75912;SDS011;64592;52.168;21.040;2023-04-19T08:26:23;14.75;;;8.65;;
75912;SDS011;64592;52.168;21.040;2023-04-19T08:31:24;14.50;;;9.27;;
75912;SDS011;64592;52.168;21.040;2023-04-19T08:36:27;12.90;;;8.43;;
75912;SDS011;64592;52.168;21.040;2023-04-19T08:41:29;12.68;;;8.55;;
75912;SDS011;64592;52.168;21.040;2023-04-19T08:46:31;10.65;;;7.97;;
75912;SDS011;64592;52.168;21.040;2023-04-19T08:51:34;11.80;;;8.55;;
75912;SDS011;64592;52.168;21.040;2023-04-19T08:56:36;11.30;;;8.50;;
75912;SDS011;64592;52.168;21.040;2023-04-19T09:01:38;12.27;;;8.52;;
75912;SDS011;64592;52.168;21.040;2023-04-19T09:06:41;11.25;;;8.27;;
75912;SDS011;64592;52.168;21.040;2023-04-19T09:11:43;10.05;;;6.93;;
75912;SDS011;64592;52.168;21.040;2023-04-19T09:16:45;10.88;;;6.93;;
75912;SDS011;64592;52.168;21.040;2023-04-19T09:21:48;11.27;;;7.25;;
75912;SDS011;64592;52.168;21.040;2023-04-19T09:26:53;13.60;;;8.75;;
75912;SDS011;64592;52.168;21.040;2023-04-19T09:31:57;11.07;;;7.30;;
75912;SDS011;64592;52.168;21.040;2023-04-19T09:37:11;10.60;;;7.50;;
75912;SDS011;64592;52.168;21.040;2023-04-19T09:42:13;14.32;;;8.00;;
75912;SDS011;64592;52.168;21.040;2023-04-19T09:47:22;12.20;;;7.68;;
75912;SDS011;64592;52.168;21.040;2023-04-19T09:52:26;10.82;;;7.15;;
75912;SDS011;64592;52.168;21.040;2023-04-19T09:57:28;10.60;;;7.82;;
75912;SDS011;64592;52.168;21.040;2023-04-19T10:02:30;11.80;;;7.90;;
75912;SDS011;64592;52.168;21.040;2023-04-19T10:07:34;12.05;;;6.93;;
75912;SDS011;64592;52.168;21.040;2023-04-19T10:12:37;13.90;;;7.80;;
75912;SDS011;64592;52.168;21.040;2023-04-19T10:17:39;11.43;;;7.10;;
75912;SDS011;64592;52.168;21.040;2023-04-19T10:22:43;10.57;;;6.82;;
75912;SDS011;64592;52.168;21.040;2023-04-19T10:27:45;10.93;;;6.65;;
75912;SDS011;64592;52.168;21.040;2023-04-19T10:32:50;12.98;;;6.90;;
75912;SDS011;64592;52.168;21.040;2023-04-19T10:38:02;10.18;;;7.28;;
75912;SDS011;64592;52.168;21.040;2023-04-19T10:43:15;13.15;;;8.23;;
75912;SDS011;64592;52.168;21.040;2023-04-19T10:48:32;10.18;;;6.93;;
75912;SDS011;64592;52.168;21.040;2023-04-19T10:53:48;11.90;;;7.80;;
75912;SDS011;64592;52.168;21.040;2023-04-19T10:59:10;17.30;;;8.18;;
75912;SDS011;64592;52.168;21.040;2023-04-19T11:04:21;13.65;;;7.22;;
75912;SDS011;64592;52.168;21.040;2023-04-19T11:09:27;15.20;;;7.93;;
75912;SDS011;64592;52.168;21.040;2023-04-19T11:14:34;17.15;;;7.85;;
75912;SDS011;64592;52.168;21.040;2023-04-19T11:19:37;14.85;;;8.95;;
75912;SDS011;64592;52.168;21.040;2023-04-19T11:24:45;13.32;;;8.40;;
75912;SDS011;64592;52.168;21.040;2023-04-19T11:29:47;12.82;;;7.32;;
75912;SDS011;64592;52.168;21.040;2023-04-19T11:34:48;12.35;;;8.02;;
75912;SDS011;64592;52.168;21.040;2023-04-19T11:39:52;11.20;;;7.03;;
75912;SDS011;64592;52.168;21.040;2023-04-19T11:44:53;11.07;;;7.65;;
75912;SDS011;64592;52.168;21.040;2023-04-19T11:49:56;13.48;;;8.07;;
75912;SDS011;64592;52.168;21.040;2023-04-19T11:55:20;11.25;;;7.25;;
75912;SDS011;64592;52.168;21.040;2023-04-19T12:00:26;10.38;;;6.72;;
75912;SDS011;64592;52.168;21.040;2023-04-19T12:05:28;11.68;;;7.35;;
75912;SDS011;64592;52.168;21.040;2023-04-19T12:10:31;11.60;;;7.45;;
75912;SDS011;64592;52.168;21.040;2023-04-19T12:15:40;12.15;;;7.30;;
75912;SDS011;64592;52.168;21.040;2023-04-19T12:20:43;9.48;;;6.55;;
75912;SDS011;64592;52.168;21.040;2023-04-19T12:25:47;9.15;;;6.28;;
75912;SDS011;64592;52.168;21.040;2023-04-19T12:30:50;10.25;;;7.18;;
75912;SDS011;64592;52.168;21.040;2023-04-19T12:35:53;11.98;;;6.20;;
75912;SDS011;64592;52.168;21.040;2023-04-19T12:40:56;9.10;;;7.15;;
75912;SDS011;64592;52.168;21.040;2023-04-19T12:45:57;9.40;;;6.30;;
75912;SDS011;64592;52.168;21.040;2023-04-19T12:50:59;11.10;;;6.80;;
75912;SDS011;64592;52.168;21.040;2023-04-19T12:56:02;9.20;;;6.07;;
75912;SDS011;64592;52.168;21.040;2023-04-19T13:01:05;8.40;;;5.97;;
75912;SDS011;64592;52.168;21.040;2023-04-19T13:06:06;7.78;;;5.18;;
75912;SDS011;64592;52.168;21.040;2023-04-19T13:11:11;8.20;;;5.38;;
75912;SDS011;64592;52.168;21.040;2023-04-19T13:16:13;8.32;;;5.05;;
75912;SDS011;64592;52.168;21.040;2023-04-19T13:21:14;7.50;;;5.00;;
75912;SDS011;64592;52.168;21.040;2023-04-19T13:26:17;8.93;;;5.80;;
75912;SDS011;64592;52.168;21.040;2023-04-19T13:31:19;9.98;;;6.00;;
75912;SDS011;64592;52.168;21.040;2023-04-19T13:36:21;9.55;;;5.32;;
75912;SDS011;64592;52.168;21.040;2023-04-19T13:41:24;7.47;;;5.22;;
75912;SDS011;64592;52.168;21.040;2023-04-19T13:46:26;7.82;;;5.40;;
75912;SDS011;64592;52.168;21.040;2023-04-19T13:51:27;6.70;;;4.82;;
75912;SDS011;64592;52.168;21.040;2023-04-19T13:56:31;9.40;;;5.47;;
75912;SDS011;64592;52.168;21.040;2023-04-19T14:01:33;7.45;;;5.10;;
75912;SDS011;64592;52.168;21.040;2023-04-19T14:06:35;8.82;;;5.57;;
75912;SDS011;64592;52.168;21.040;2023-04-19T14:11:38;7.85;;;5.47;;
75912;SDS011;64592;52.168;21.040;2023-04-19T14:16:40;8.32;;;5.35;;
75912;SDS011;64592;52.168;21.040;2023-04-19T14:21:42;8.85;;;5.75;;
75912;SDS011;64592;52.168;21.040;2023-04-19T14:26:45;8.48;;;5.80;;
75912;SDS011;64592;52.168;21.040;2023-04-19T14:31:46;10.27;;;6.00;;
75912;SDS011;64592;52.168;21.040;2023-04-19T14:36:48;8.70;;;6.45;;
75912;SDS011;64592;52.168;21.040;2023-04-19T14:41:51;9.00;;;6.10;;
75912;SDS011;64592;52.168;21.040;2023-04-19T14:46:53;15.07;;;5.57;;
75912;SDS011;64592;52.168;21.040;2023-04-19T14:51:54;7.88;;;5.53;;
75912;SDS011;64592;52.168;21.040;2023-04-19T14:56:57;11.05;;;7.03;;
75912;SDS011;64592;52.168;21.040;2023-04-19T15:01:59;8.75;;;5.72;;
75912;SDS011;64592;52.168;21.040;2023-04-19T15:07:01;10.73;;;5.90;;
75912;SDS011;64592;52.168;21.040;2023-04-19T15:12:06;8.75;;;5.50;;
75912;SDS011;64592;52.168;21.040;2023-04-19T15:17:07;8.90;;;5.85;;
75912;SDS011;64592;52.168;21.040;2023-04-19T15:22:09;10.88;;;6.03;;
75912;SDS011;64592;52.168;21.040;2023-04-19T15:27:12;9.88;;;6.68;;
75912;SDS011;64592;52.168;21.040;2023-04-19T15:32:14;7.85;;;5.15;;
75912;SDS011;64592;52.168;21.040;2023-04-19T15:37:16;14.52;;;8.02;;
75912;SDS011;64592;52.168;21.040;2023-04-19T15:42:19;7.78;;;4.72;;
75912;SDS011;64592;52.168;21.040;2023-04-19T15:47:20;7.55;;;5.03;;
75912;SDS011;64592;52.168;21.040;2023-04-19T15:52:22;9.15;;;5.13;;
75912;SDS011;64592;52.168;21.040;2023-04-19T15:57:25;7.00;;;5.13;;
75912;SDS011;64592;52.168;21.040;2023-04-19T16:02:27;6.32;;;4.03;;
75912;SDS011;64592;52.168;21.040;2023-04-19T16:07:29;6.40;;;4.88;;
75912;SDS011;64592;52.168;21.040;2023-04-19T16:12:32;12.68;;;5.55;;
75912;SDS011;64592;52.168;21.040;2023-04-19T16:17:33;8.98;;;5.63;;
75912;SDS011;64592;52.168;21.040;2023-04-19T16:22:35;9.68;;;5.72;;
75912;SDS011;64592;52.168;21.040;2023-04-19T16:27:39;7.55;;;5.15;;
75912;SDS011;64592;52.168;21.040;2023-04-19T16:32:41;9.05;;;6.18;;
75912;SDS011;64592;52.168;21.040;2023-04-19T16:37:43;11.05;;;6.30;;
75912;SDS011;64592;52.168;21.040;2023-04-19T16:42:46;16.77;;;10.43;;
75912;SDS011;64592;52.168;21.040;2023-04-19T16:47:48;18.77;;;9.35;;
75912;SDS011;64592;52.168;21.040;2023-04-19T16:52:50;13.75;;;8.27;;
75912;SDS011;64592;52.168;21.040;2023-04-19T16:57:53;11.30;;;6.28;;
75912;SDS011;64592;52.168;21.040;2023-04-19T17:02:55;7.85;;;4.78;;
75912;SDS011;64592;52.168;21.040;2023-04-19T17:07:57;7.68;;;6.13;;
75912;SDS011;64592;52.168;21.040;2023-04-19T17:13:00;10.43;;;6.53;;
75912;SDS011;64592;52.168;21.040;2023-04-19T17:18:01;13.07;;;6.03;;
75912;SDS011;64592;52.168;21.040;2023-04-19T17:23:03;11.48;;;6.43;;
75912;SDS011;64592;52.168;21.040;2023-04-19T17:28:06;13.50;;;7.18;;
75912;SDS011;64592;52.168;21.040;2023-04-19T17:33:08;8.73;;;5.65;;
75912;SDS011;64592;52.168;21.040;2023-04-19T17:38:09;11.05;;;7.45;;
75912;SDS011;64592;52.168;21.040;2023-04-19T17:43:13;12.32;;;6.85;;
75912;SDS011;64592;52.168;21.040;2023-04-19T17:48:14;13.98;;;7.03;;
75912;SDS011;64592;52.168;21.040;2023-04-19T17:53:16;19.13;;;10.73;;
75912;SDS011;64592;52.168;21.040;2023-04-19T17:58:19;18.77;;;11.35;;
75912;SDS011;64592;52.168;21.040;2023-04-19T18:03:21;14.93;;;8.82;;
75912;SDS011;64592;52.168;21.040;2023-04-19T18:08:23;14.15;;;8.90;;
75912;SDS011;64592;52.168;21.040;2023-04-19T18:13:26;15.60;;;8.90;;
75912;SDS011;64592;52.168;21.040;2023-04-19T18:18:28;13.13;;;9.05;;
75912;SDS011;64592;52.168;21.040;2023-04-19T18:23:31;13.65;;;8.65;;
75912;SDS011;64592;52.168;21.040;2023-04-19T18:28:34;18.35;;;9.85;;
75912;SDS011;64592;52.168;21.040;2023-04-19T18:33:36;18.27;;;8.95;;
75912;SDS011;64592;52.168;21.040;2023-04-19T18:38:38;15.35;;;8.23;;
75912;SDS011;64592;52.168;21.040;2023-04-19T18:43:41;14.48;;;8.75;;
75912;SDS011;64592;52.168;21.040;2023-04-19T18:48:42;14.15;;;8.57;;
75912;SDS011;64592;52.168;21.040;2023-04-19T18:53:45;14.43;;;9.18;;
75912;SDS011;64592;52.168;21.040;2023-04-19T18:58:49;12.93;;;8.15;;
75912;SDS011;64592;52.168;21.040;2023-04-19T19:03:51;14.27;;;7.85;;
75912;SDS011;64592;52.168;21.040;2023-04-19T19:08:53;10.10;;;7.45;;
75912;SDS011;64592;52.168;21.040;2023-04-19T19:13:56;15.82;;;8.43;;
75912;SDS011;64592;52.168;21.040;2023-04-19T19:18:57;15.77;;;8.38;;
75912;SDS011;64592;52.168;21.040;2023-04-19T19:23:59;10.75;;;7.57;;
75912;SDS011;64592;52.168;21.040;2023-04-19T19:29:02;11.05;;;7.00;;
75912;SDS011;64592;52.168;21.040;2023-04-19T19:34:04;11.85;;;6.32;;
75912;SDS011;64592;52.168;21.040;2023-04-19T19:39:06;10.15;;;5.88;;
75912;SDS011;64592;52.168;21.040;2023-04-19T19:44:11;8.45;;;5.82;;
75912;SDS011;64592;52.168;21.040;2023-04-19T19:49:12;10.13;;;5.90;;
75912;SDS011;64592;52.168;21.040;2023-04-19T19:54:14;8.50;;;5.70;;
75912;SDS011;64592;52.168;21.040;2023-04-19T19:59:17;10.32;;;5.72;;
75912;SDS011;64592;52.168;21.040;2023-04-19T20:04:19;10.35;;;5.00;;
75912;SDS011;64592;52.168;21.040;2023-04-19T20:09:21;8.10;;;5.15;;
75912;SDS011;64592;52.168;21.040;2023-04-19T20:14:24;8.85;;;5.05;;
75912;SDS011;64592;52.168;21.040;2023-04-19T20:19:27;8.95;;;5.30;;
75912;SDS011;64592;52.168;21.040;2023-04-19T20:24:28;7.65;;;5.20;;
75912;SDS011;64592;52.168;21.040;2023-04-19T20:29:32;8.20;;;4.60;;
75912;SDS011;64592;52.168;21.040;2023-04-19T20:34:34;11.35;;;5.47;;
75912;SDS011;64592;52.168;21.040;2023-04-19T20:39:36;7.35;;;4.88;;
75912;SDS011;64592;52.168;21.040;2023-04-19T20:44:39;9.98;;;5.10;;
75912;SDS011;64592;52.168;21.040;2023-04-19T20:49:41;8.65;;;5.15;;
75912;SDS011;64592;52.168;21.040;2023-04-19T20:54:43;10.70;;;5.10;;
75912;SDS011;64592;52.168;21.040;2023-04-19T20:59:46;8.98;;;5.63;;
75912;SDS011;64592;52.168;21.040;2023-04-19T21:04:48;8.40;;;4.80;;
75912;SDS011;64592;52.168;21.040;2023-04-19T21:09:49;13.55;;;4.93;;
75912;SDS011;64592;52.168;21.040;2023-04-19T21:14:52;11.23;;;5.35;;
75912;SDS011;64592;52.168;21.040;2023-04-19T21:19:54;10.07;;;5.03;;
75912;SDS011;64592;52.168;21.040;2023-04-19T21:24:56;8.07;;;5.22;;
75912;SDS011;64592;52.168;21.040;2023-04-19T21:29:59;10.38;;;4.95;;
75912;SDS011;64592;52.168;21.040;2023-04-19T21:35:01;15.15;;;6.00;;
75912;SDS011;64592;52.168;21.040;2023-04-19T21:40:03;10.95;;;6.03;;
75912;SDS011;64592;52.168;21.040;2023-04-19T21:45:08;10.60;;;5.55;;
75912;SDS011;64592;52.168;21.040;2023-04-19T21:50:10;16.17;;;6.75;;
75912;SDS011;64592;52.168;21.040;2023-04-19T21:55:12;12.38;;;6.13;;
75912;SDS011;64592;52.168;21.040;2023-04-19T22:00:15;10.48;;;6.68;;
75912;SDS011;64592;52.168;21.040;2023-04-19T22:05:17;16.70;;;7.78;;
75912;SDS011;64592;52.168;21.040;2023-04-19T22:10:19;13.85;;;7.47;;
75912;SDS011;64592;52.168;21.040;2023-04-19T22:15:23;13.85;;;7.32;;
75912;SDS011;64592;52.168;21.040;2023-04-19T22:20:25;13.43;;;8.57;;
75912;SDS011;64592;52.168;21.040;2023-04-19T22:25:27;13.05;;;7.70;;
75912;SDS011;64592;52.168;21.040;2023-04-19T22:30:30;12.38;;;7.30;;
75912;SDS011;64592;52.168;21.040;2023-04-19T22:35:31;17.88;;;7.60;;
75912;SDS011;64592;52.168;21.040;2023-04-19T22:40:33;18.27;;;8.55;;
75912;SDS011;64592;52.168;21.040;2023-04-19T22:45:36;16.48;;;8.75;;
75912;SDS011;64592;52.168;21.040;2023-04-19T22:50:38;15.68;;;8.50;;
75912;SDS011;64592;52.168;21.040;2023-04-19T22:55:40;13.00;;;7.80;;
75912;SDS011;64592;52.168;21.040;2023-04-19T23:00:44;14.07;;;8.93;;
75912;SDS011;64592;52.168;21.040;2023-04-19T23:05:46;15.65;;;8.50;;
75912;SDS011;64592;52.168;21.040;2023-04-19T23:10:47;13.75;;;8.65;;
75912;SDS011;64592;52.168;21.040;2023-04-19T23:15:52;15.43;;;8.88;;
75912;SDS011;64592;52.168;21.040;2023-04-19T23:20:54;17.38;;;8.20;;
75912;SDS011;64592;52.168;21.040;2023-04-19T23:25:56;18.27;;;9.48;;
75912;SDS011;64592;52.168;21.040;2023-04-19T23:30:59;17.45;;;9.20;;
75912;SDS011;64592;52.168;21.040;2023-04-19T23:36:01;14.38;;;8.45;;
75912;SDS011;64592;52.168;21.040;2023-04-19T23:41:02;14.35;;;7.85;;
75912;SDS011;64592;52.168;21.040;2023-04-19T23:46:06;14.88;;;8.90;;
75912;SDS011;64592;52.168;21.040;2023-04-19T23:51:07;14.98;;;8.25;;
75912;SDS011;64592;52.168;21.040;2023-04-19T23:56:11;18.20;;;8.88;;
